sensor_id;sensor_type;location;lat;lon;timestamp;P1;durP1;ratioP1;P2;durP2;ratioP2
63012;SDS011;62113;45.624;11.700;2022-08-03T00:01:57;6.20;;;3.83;;
63012;SDS011;62113;45.624;11.700;2022-08-03T00:06:48;4.80;;;3.90;;
63012;SDS011;62113;45.624;11.700;2022-08-03T00:09:14;4.57;;;4.18;;
63012;SDS011;62113;45.624;11.700;2022-08-03T00:11:40;4.78;;;4.30;;
63012;SDS011;62113;45.624;11.700;2022-08-03T00:14:06;6.40;;;5.07;;
63012;SDS011;62113;45.624;11.700;2022-08-03T00:16:32;6.38;;;5.43;;
63012;SDS011;62113;45.624;11.700;2022-08-03T00:18:58;8.90;;;5.50;;
63012;SDS011;62113;45.624;11.700;2022-08-03T00:21:23;9.52;;;5.70;;
63012;SDS011;62113;45.624;11.700;2022-08-03T00:23:49;6.13;;;5.10;;
63012;SDS011;62113;45.624;11.700;2022-08-03T00:26:15;6.90;;;5.22;;
63012;SDS011;62113;45.624;11.700;2022-08-03T00:28:40;6.87;;;4.60;;
63012;SDS011;62113;45.624;11.700;2022-08-03T00:31:06;6.78;;;4.80;;
63012;SDS011;62113;45.624;11.700;2022-08-03T00:33:32;11.20;;;4.57;;
63012;SDS011;62113;45.624;11.700;2022-08-03T00:35:58;6.50;;;4.97;;
63012;SDS011;62113;45.624;11.700;2022-08-03T00:38:23;6.25;;;4.65;;
63012;SDS011;62113;45.624;11.700;2022-08-03T00:40:49;5.53;;;5.03;;
63012;SDS011;62113;45.624;11.700;2022-08-03T00:43:15;9.03;;;5.03;;
63012;SDS011;62113;45.624;11.700;2022-08-03T00:45:41;8.00;;;4.70;;
63012;SDS011;62113;45.624;11.700;2022-08-03T00:48:08;10.38;;;4.63;;
63012;SDS011;62113;45.624;11.700;2022-08-03T00:50:40;8.13;;;4.65;;
63012;SDS011;62113;45.624;11.700;2022-08-03T00:53:08;5.75;;;4.82;;
63012;SDS011;62113;45.624;11.700;2022-08-03T00:55:36;8.43;;;4.20;;
63012;SDS011;62113;45.624;11.700;2022-08-03T00:58:03;6.82;;;4.60;;
63012;SDS011;62113;45.624;11.700;2022-08-03T01:00:32;4.70;;;4.30;;
63012;SDS011;62113;45.624;11.700;2022-08-03T01:03:00;8.88;;;4.38;;
63012;SDS011;62113;45.624;11.700;2022-08-03T01:05:27;4.95;;;4.20;;
63012;SDS011;62113;45.624;11.700;2022-08-03T01:14:11;7.03;;;3.92;;
63012;SDS011;62113;45.624;11.700;2022-08-03T01:20:05;6.10;;;3.78;;
63012;SDS011;62113;45.624;11.700;2022-08-03T01:27:58;3.72;;;3.42;;
63012;SDS011;62113;45.624;11.700;2022-08-03T01:30:28;7.75;;;4.00;;
63012;SDS011;62113;45.624;11.700;2022-08-03T01:32:58;4.50;;;3.50;;
63012;SDS011;62113;45.624;11.700;2022-08-03T01:38:00;7.80;;;3.10;;
63012;SDS011;62113;45.624;11.700;2022-08-03T01:40:28;4.88;;;3.13;;
63012;SDS011;62113;45.624;11.700;2022-08-03T01:42:56;7.00;;;3.17;;
63012;SDS011;62113;45.624;11.700;2022-08-03T01:45:26;6.43;;;2.70;;
63012;SDS011;62113;45.624;11.700;2022-08-03T01:47:53;5.75;;;2.85;;
63012;SDS011;62113;45.624;11.700;2022-08-03T01:50:20;3.25;;;2.95;;
63012;SDS011;62113;45.624;11.700;2022-08-03T01:52:50;8.57;;;2.75;;
63012;SDS011;62113;45.624;11.700;2022-08-03T01:57:43;5.20;;;2.72;;
63012;SDS011;62113;45.624;11.700;2022-08-03T02:00:12;4.22;;;2.65;;
63012;SDS011;62113;45.624;11.700;2022-08-03T02:02:38;4.53;;;2.63;;
63012;SDS011;62113;45.624;11.700;2022-08-03T02:05:06;4.80;;;2.97;;
63012;SDS011;62113;45.624;11.700;2022-08-03T02:07:34;3.35;;;2.78;;
63012;SDS011;62113;45.624;11.700;2022-08-03T02:10:01;2.47;;;2.20;;
63012;SDS011;62113;45.624;11.700;2022-08-03T02:12:30;3.38;;;2.40;;
63012;SDS011;62113;45.624;11.700;2022-08-03T02:14:57;5.88;;;2.35;;
63012;SDS011;62113;45.624;11.700;2022-08-03T02:17:24;4.07;;;2.28;;
63012;SDS011;62113;45.624;11.700;2022-08-03T02:19:51;3.75;;;2.75;;
63012;SDS011;62113;45.624;11.700;2022-08-03T02:22:20;6.35;;;2.42;;
63012;SDS011;62113;45.624;11.700;2022-08-03T02:24:48;5.38;;;2.95;;
63012;SDS011;62113;45.624;11.700;2022-08-03T02:27:21;3.65;;;2.50;;
63012;SDS011;62113;45.624;11.700;2022-08-03T02:29:59;4.38;;;2.60;;
63012;SDS011;62113;45.624;11.700;2022-08-03T02:32:31;2.92;;;2.40;;
63012;SDS011;62113;45.624;11.700;2022-08-03T02:35:01;3.30;;;2.38;;
63012;SDS011;62113;45.624;11.700;2022-08-03T02:37:30;2.38;;;2.28;;
63012;SDS011;62113;45.624;11.700;2022-08-03T02:40:02;3.03;;;2.42;;
63012;SDS011;62113;45.624;11.700;2022-08-03T02:42:31;3.30;;;2.40;;
63012;SDS011;62113;45.624;11.700;2022-08-03T02:44:58;3.25;;;2.47;;
63012;SDS011;62113;45.624;11.700;2022-08-03T02:47:27;10.43;;;2.80;;
63012;SDS011;62113;45.624;11.700;2022-08-03T02:52:22;3.85;;;2.75;;
63012;SDS011;62113;45.624;11.700;2022-08-03T02:54:51;6.53;;;2.40;;
63012;SDS011;62113;45.624;11.700;2022-08-03T02:57:20;4.75;;;2.42;;
63012;SDS011;62113;45.624;11.700;2022-08-03T02:59:46;11.95;;;2.60;;
63012;SDS011;62113;45.624;11.700;2022-08-03T03:02:13;3.63;;;2.60;;
63012;SDS011;62113;45.624;11.700;2022-08-03T03:04:40;9.55;;;2.58;;
63012;SDS011;62113;45.624;11.700;2022-08-03T03:07:07;5.95;;;2.60;;
63012;SDS011;62113;45.624;11.700;2022-08-03T03:09:33;6.43;;;2.35;;
63012;SDS011;62113;45.624;11.700;2022-08-03T03:11:59;4.75;;;2.08;;
63012;SDS011;62113;45.624;11.700;2022-08-03T03:14:26;5.22;;;2.03;;
63012;SDS011;62113;45.624;11.700;2022-08-03T03:16:52;3.75;;;2.00;;
63012;SDS011;62113;45.624;11.700;2022-08-03T03:19:19;3.22;;;2.08;;
63012;SDS011;62113;45.624;11.700;2022-08-03T03:21:45;5.07;;;1.75;;
63012;SDS011;62113;45.624;11.700;2022-08-03T03:24:11;2.40;;;2.20;;
63012;SDS011;62113;45.624;11.700;2022-08-03T03:26:37;3.50;;;2.25;;
63012;SDS011;62113;45.624;11.700;2022-08-03T03:29:03;2.17;;;1.80;;
63012;SDS011;62113;45.624;11.700;2022-08-03T03:31:30;3.53;;;1.98;;
63012;SDS011;62113;45.624;11.700;2022-08-03T03:33:56;1.65;;;1.55;;
63012;SDS011;62113;45.624;11.700;2022-08-03T03:36:22;7.63;;;2.00;;
63012;SDS011;62113;45.624;11.700;2022-08-03T03:38:48;5.67;;;1.80;;
63012;SDS011;62113;45.624;11.700;2022-08-03T03:41:14;2.53;;;1.60;;
63012;SDS011;62113;45.624;11.700;2022-08-03T03:43:40;2.80;;;1.90;;
63012;SDS011;62113;45.624;11.700;2022-08-03T03:46:05;8.93;;;1.88;;
63012;SDS011;62113;45.624;11.700;2022-08-03T03:48:32;3.83;;;2.00;;
63012;SDS011;62113;45.624;11.700;2022-08-03T03:50:58;2.33;;;2.10;;
63012;SDS011;62113;45.624;11.700;2022-08-03T03:53:24;3.28;;;1.52;;
63012;SDS011;62113;45.624;11.700;2022-08-03T03:55:53;1.70;;;1.60;;
63012;SDS011;62113;45.624;11.700;2022-08-03T03:58:19;5.45;;;1.73;;
63012;SDS011;62113;45.624;11.700;2022-08-03T04:05:36;4.30;;;1.60;;
63012;SDS011;62113;45.624;11.700;2022-08-03T04:08:21;2.13;;;1.50;;
63012;SDS011;62113;45.624;11.700;2022-08-03T04:11:21;4.68;;;1.73;;
63012;SDS011;62113;45.624;11.700;2022-08-03T04:13:55;2.03;;;1.65;;
63012;SDS011;62113;45.624;11.700;2022-08-03T04:16:27;2.85;;;1.42;;
63012;SDS011;62113;45.624;11.700;2022-08-03T04:19:03;4.32;;;1.90;;
63012;SDS011;62113;45.624;11.700;2022-08-03T04:21:32;2.90;;;1.92;;
63012;SDS011;62113;45.624;11.700;2022-08-03T04:24:02;1.67;;;1.52;;
63012;SDS011;62113;45.624;11.700;2022-08-03T04:26:32;2.15;;;1.50;;
63012;SDS011;62113;45.624;11.700;2022-08-03T04:29:00;4.28;;;1.60;;
63012;SDS011;62113;45.624;11.700;2022-08-03T04:31:28;14.40;;;1.85;;
63012;SDS011;62113;45.624;11.700;2022-08-03T04:38:59;4.47;;;1.70;;
63012;SDS011;62113;45.624;11.700;2022-08-03T04:41:32;3.80;;;1.85;;
63012;SDS011;62113;45.624;11.700;2022-08-03T04:44:00;5.47;;;2.10;;
63012;SDS011;62113;45.624;11.700;2022-08-03T04:46:30;5.53;;;2.20;;
63012;SDS011;62113;45.624;11.700;2022-08-03T04:48:58;4.40;;;1.65;;
63012;SDS011;62113;45.624;11.700;2022-08-03T04:53:50;5.15;;;1.80;;
63012;SDS011;62113;45.624;11.700;2022-08-03T04:56:16;1.85;;;1.75;;
63012;SDS011;62113;45.624;11.700;2022-08-03T04:58:42;4.88;;;2.00;;
63012;SDS011;62113;45.624;11.700;2022-08-03T05:01:08;3.20;;;1.90;;
63012;SDS011;62113;45.624;11.700;2022-08-03T05:03:33;5.03;;;1.60;;
63012;SDS011;62113;45.624;11.700;2022-08-03T05:05:59;6.05;;;1.70;;
63012;SDS011;62113;45.624;11.700;2022-08-03T05:08:25;4.43;;;1.85;;
63012;SDS011;62113;45.624;11.700;2022-08-03T05:10:51;2.28;;;1.30;;
63012;SDS011;62113;45.624;11.700;2022-08-03T05:13:17;5.35;;;1.40;;
63012;SDS011;62113;45.624;11.700;2022-08-03T05:15:42;1.35;;;1.20;;
63012;SDS011;62113;45.624;11.700;2022-08-03T05:18:08;2.38;;;1.10;;
63012;SDS011;62113;45.624;11.700;2022-08-03T05:20:34;1.88;;;1.50;;
63012;SDS011;62113;45.624;11.700;2022-08-03T05:22:59;1.90;;;1.50;;
63012;SDS011;62113;45.624;11.700;2022-08-03T05:27:52;4.00;;;1.65;;
63012;SDS011;62113;45.624;11.700;2022-08-03T05:30:17;7.88;;;1.63;;
63012;SDS011;62113;45.624;11.700;2022-08-03T05:32:43;8.75;;;1.85;;
63012;SDS011;62113;45.624;11.700;2022-08-03T05:35:09;2.75;;;1.80;;
63012;SDS011;62113;45.624;11.700;2022-08-03T05:37:34;3.50;;;1.48;;
63012;SDS011;62113;45.624;11.700;2022-08-03T05:40:00;2.17;;;1.50;;
63012;SDS011;62113;45.624;11.700;2022-08-03T05:42:26;1.90;;;1.40;;
63012;SDS011;62113;45.624;11.700;2022-08-03T05:44:52;3.80;;;1.30;;
63012;SDS011;62113;45.624;11.700;2022-08-03T05:47:17;11.27;;;2.63;;
63012;SDS011;62113;45.624;11.700;2022-08-03T05:49:43;2.90;;;1.90;;
63012;SDS011;62113;45.624;11.700;2022-08-03T05:52:08;4.95;;;1.50;;
63012;SDS011;62113;45.624;11.700;2022-08-03T05:54:34;3.45;;;1.25;;
63012;SDS011;62113;45.624;11.700;2022-08-03T05:57:00;3.72;;;1.40;;
63012;SDS011;62113;45.624;11.700;2022-08-03T05:59:26;3.70;;;1.60;;
63012;SDS011;62113;45.624;11.700;2022-08-03T06:01:51;5.07;;;1.70;;
63012;SDS011;62113;45.624;11.700;2022-08-03T06:04:17;4.35;;;1.80;;
63012;SDS011;62113;45.624;11.700;2022-08-03T06:06:43;4.10;;;1.77;;
63012;SDS011;62113;45.624;11.700;2022-08-03T06:09:09;2.65;;;1.85;;
63012;SDS011;62113;45.624;11.700;2022-08-03T06:11:35;4.70;;;2.30;;
63012;SDS011;62113;45.624;11.700;2022-08-03T06:16:27;2.80;;;1.63;;
63012;SDS011;62113;45.624;11.700;2022-08-03T06:18:52;4.07;;;1.67;;
63012;SDS011;62113;45.624;11.700;2022-08-03T06:21:18;1.63;;;1.52;;
63012;SDS011;62113;45.624;11.700;2022-08-03T06:23:44;5.38;;;1.58;;
63012;SDS011;62113;45.624;11.700;2022-08-03T06:26:10;5.57;;;1.90;;
63012;SDS011;62113;45.624;11.700;2022-08-03T06:28:35;6.10;;;1.55;;
63012;SDS011;62113;45.624;11.700;2022-08-03T06:33:27;1.73;;;1.63;;
63012;SDS011;62113;45.624;11.700;2022-08-03T06:35:53;3.35;;;1.50;;
63012;SDS011;62113;45.624;11.700;2022-08-03T06:38:19;2.13;;;1.30;;
63012;SDS011;62113;45.624;11.700;2022-08-03T06:40:44;1.63;;;1.30;;
63012;SDS011;62113;45.624;11.700;2022-08-03T06:43:10;2.75;;;1.55;;
63012;SDS011;62113;45.624;11.700;2022-08-03T06:45:37;7.88;;;1.55;;
63012;SDS011;62113;45.624;11.700;2022-08-03T06:50:30;11.23;;;1.65;;
63012;SDS011;62113;45.624;11.700;2022-08-03T06:52:57;9.15;;;1.73;;
63012;SDS011;62113;45.624;11.700;2022-08-03T06:55:23;11.25;;;1.48;;
63012;SDS011;62113;45.624;11.700;2022-08-03T06:57:48;4.68;;;1.30;;
63012;SDS011;62113;45.624;11.700;2022-08-03T07:00:14;2.03;;;1.48;;
63012;SDS011;62113;45.624;11.700;2022-08-03T07:02:40;3.40;;;1.40;;
63012;SDS011;62113;45.624;11.700;2022-08-03T07:05:06;3.30;;;1.30;;
63012;SDS011;62113;45.624;11.700;2022-08-03T07:07:33;5.45;;;1.60;;
63012;SDS011;62113;45.624;11.700;2022-08-03T07:09:59;12.02;;;1.58;;
63012;SDS011;62113;45.624;11.700;2022-08-03T07:12:25;2.67;;;1.30;;
63012;SDS011;62113;45.624;11.700;2022-08-03T07:14:52;6.22;;;1.40;;
63012;SDS011;62113;45.624;11.700;2022-08-03T07:17:18;7.20;;;1.60;;
63012;SDS011;62113;45.624;11.700;2022-08-03T07:19:43;1.50;;;1.35;;
63012;SDS011;62113;45.624;11.700;2022-08-03T07:22:09;6.22;;;1.27;;
63012;SDS011;62113;45.624;11.700;2022-08-03T07:24:35;4.60;;;1.40;;
63012;SDS011;62113;45.624;11.700;2022-08-03T07:27:01;2.38;;;1.20;;
63012;SDS011;62113;45.624;11.700;2022-08-03T07:29:26;2.42;;;1.00;;
63012;SDS011;62113;45.624;11.700;2022-08-03T07:31:52;2.80;;;1.30;;
63012;SDS011;62113;45.624;11.700;2022-08-03T07:34:18;1.00;;;1.00;;
63012;SDS011;62113;45.624;11.700;2022-08-03T07:36:43;1.48;;;1.15;;
63012;SDS011;62113;45.624;11.700;2022-08-03T07:39:09;1.15;;;1.00;;
63012;SDS011;62113;45.624;11.700;2022-08-03T07:41:35;2.25;;;1.00;;
63012;SDS011;62113;45.624;11.700;2022-08-03T07:44:01;9.05;;;1.40;;
63012;SDS011;62113;45.624;11.700;2022-08-03T07:46:27;1.50;;;1.15;;
63012;SDS011;62113;45.624;11.700;2022-08-03T07:48:52;2.85;;;1.25;;
63012;SDS011;62113;45.624;11.700;2022-08-03T07:51:18;2.10;;;1.13;;
63012;SDS011;62113;45.624;11.700;2022-08-03T07:53:44;1.65;;;1.08;;
63012;SDS011;62113;45.624;11.700;2022-08-03T07:56:09;1.30;;;1.00;;
63012;SDS011;62113;45.624;11.700;2022-08-03T07:58:35;1.23;;;1.10;;
63012;SDS011;62113;45.624;11.700;2022-08-03T08:01:01;1.75;;;1.15;;
63012;SDS011;62113;45.624;11.700;2022-08-03T08:03:27;1.65;;;1.13;;
63012;SDS011;62113;45.624;11.700;2022-08-03T08:05:52;1.50;;;1.25;;
63012;SDS011;62113;45.624;11.700;2022-08-03T08:08:18;1.92;;;1.45;;
63012;SDS011;62113;45.624;11.700;2022-08-03T08:10:45;1.20;;;1.00;;
63012;SDS011;62113;45.624;11.700;2022-08-03T08:13:11;1.30;;;1.20;;
63012;SDS011;62113;45.624;11.700;2022-08-03T08:15:37;4.43;;;1.00;;
63012;SDS011;62113;45.624;11.700;2022-08-03T08:18:02;1.33;;;1.20;;
63012;SDS011;62113;45.624;11.700;2022-08-03T08:20:29;3.95;;;1.38;;
63012;SDS011;62113;45.624;11.700;2022-08-03T08:23:01;3.05;;;1.45;;
63012;SDS011;62113;45.624;11.700;2022-08-03T08:25:29;1.55;;;1.20;;
63012;SDS011;62113;45.624;11.700;2022-08-03T08:27:55;2.28;;;1.15;;
63012;SDS011;62113;45.624;11.700;2022-08-03T08:30:22;8.32;;;1.52;;
63012;SDS011;62113;45.624;11.700;2022-08-03T08:32:48;3.15;;;1.13;;
63012;SDS011;62113;45.624;11.700;2022-08-03T08:35:15;1.23;;;1.20;;
63012;SDS011;62113;45.624;11.700;2022-08-03T08:37:41;1.20;;;1.15;;
63012;SDS011;62113;45.624;11.700;2022-08-03T08:40:07;2.35;;;1.30;;
63012;SDS011;62113;45.624;11.700;2022-08-03T08:42:36;4.22;;;1.45;;
63012;SDS011;62113;45.624;11.700;2022-08-03T08:45:03;2.75;;;1.40;;
63012;SDS011;62113;45.624;11.700;2022-08-03T08:47:30;2.17;;;1.15;;
63012;SDS011;62113;45.624;11.700;2022-08-03T08:49:57;1.05;;;1.05;;
63012;SDS011;62113;45.624;11.700;2022-08-03T08:52:24;2.45;;;1.20;;
63012;SDS011;62113;45.624;11.700;2022-08-03T08:54:53;1.33;;;1.20;;
63012;SDS011;62113;45.624;11.700;2022-08-03T08:57:22;2.00;;;1.17;;
63012;SDS011;62113;45.624;11.700;2022-08-03T08:59:53;2.03;;;1.30;;
63012;SDS011;62113;45.624;11.700;2022-08-03T09:02:21;4.05;;;1.38;;
63012;SDS011;62113;45.624;11.700;2022-08-03T09:04:48;1.58;;;1.20;;
63012;SDS011;62113;45.624;11.700;2022-08-03T09:07:14;4.45;;;1.40;;
63012;SDS011;62113;45.624;11.700;2022-08-03T09:09:40;1.25;;;1.20;;
63012;SDS011;62113;45.624;11.700;2022-08-03T09:12:07;3.22;;;1.50;;
63012;SDS011;62113;45.624;11.700;2022-08-03T09:14:33;2.05;;;1.50;;
63012;SDS011;62113;45.624;11.700;2022-08-03T09:16:59;1.27;;;1.27;;
63012;SDS011;62113;45.624;11.700;2022-08-03T09:19:26;2.22;;;1.50;;
63012;SDS011;62113;45.624;11.700;2022-08-03T09:24:33;1.60;;;1.50;;
63012;SDS011;62113;45.624;11.700;2022-08-03T09:26:59;1.75;;;1.27;;
63012;SDS011;62113;45.624;11.700;2022-08-03T09:29:25;1.77;;;1.30;;
63012;SDS011;62113;45.624;11.700;2022-08-03T09:31:59;1.52;;;1.27;;
63012;SDS011;62113;45.624;11.700;2022-08-03T09:34:26;1.88;;;1.40;;
63012;SDS011;62113;45.624;11.700;2022-08-03T09:36:52;1.55;;;1.45;;
63012;SDS011;62113;45.624;11.700;2022-08-03T09:39:23;6.22;;;1.40;;
63012;SDS011;62113;45.624;11.700;2022-08-03T09:42:03;1.40;;;1.33;;
63012;SDS011;62113;45.624;11.700;2022-08-03T09:44:37;5.63;;;1.70;;
63012;SDS011;62113;45.624;11.700;2022-08-03T09:47:06;2.03;;;1.60;;
63012;SDS011;62113;45.624;11.700;2022-08-03T09:49:34;1.38;;;1.27;;
63012;SDS011;62113;45.624;11.700;2022-08-03T09:52:01;2.10;;;1.30;;
63012;SDS011;62113;45.624;11.700;2022-08-03T09:54:40;1.60;;;1.50;;
63012;SDS011;62113;45.624;11.700;2022-08-03T09:57:06;5.13;;;1.20;;
63012;SDS011;62113;45.624;11.700;2022-08-03T09:59:32;2.30;;;1.60;;
63012;SDS011;62113;45.624;11.700;2022-08-03T10:01:58;1.50;;;1.40;;
63012;SDS011;62113;45.624;11.700;2022-08-03T10:04:24;2.45;;;1.33;;
63012;SDS011;62113;45.624;11.700;2022-08-03T10:07:00;1.75;;;1.30;;
63012;SDS011;62113;45.624;11.700;2022-08-03T10:09:34;3.83;;;1.30;;
63012;SDS011;62113;45.624;11.700;2022-08-03T10:12:07;1.50;;;1.40;;
63012;SDS011;62113;45.624;11.700;2022-08-03T10:14:40;1.20;;;1.15;;
63012;SDS011;62113;45.624;11.700;2022-08-03T10:17:06;1.20;;;1.20;;
63012;SDS011;62113;45.624;11.700;2022-08-03T10:19:33;2.20;;;1.55;;
63012;SDS011;62113;45.624;11.700;2022-08-03T10:22:41;4.25;;;1.45;;
63012;SDS011;62113;45.624;11.700;2022-08-03T10:25:06;1.52;;;1.42;;
63012;SDS011;62113;45.624;11.700;2022-08-03T10:27:38;2.00;;;1.63;;
63012;SDS011;62113;45.624;11.700;2022-08-03T10:30:08;1.80;;;1.63;;
63012;SDS011;62113;45.624;11.700;2022-08-03T10:35:23;1.58;;;1.48;;
63012;SDS011;62113;45.624;11.700;2022-08-03T10:40:26;2.65;;;1.60;;
63012;SDS011;62113;45.624;11.700;2022-08-03T10:42:54;2.15;;;1.30;;
63012;SDS011;62113;45.624;11.700;2022-08-03T10:45:24;4.93;;;2.03;;
63012;SDS011;62113;45.624;11.700;2022-08-03T10:47:52;2.83;;;1.73;;
63012;SDS011;62113;45.624;11.700;2022-08-03T10:50:21;2.17;;;1.60;;
63012;SDS011;62113;45.624;11.700;2022-08-03T10:52:58;1.45;;;1.30;;
63012;SDS011;62113;45.624;11.700;2022-08-03T10:55:41;1.58;;;1.48;;
63012;SDS011;62113;45.624;11.700;2022-08-03T11:01:02;1.95;;;1.20;;
63012;SDS011;62113;45.624;11.700;2022-08-03T11:03:28;2.22;;;1.58;;
63012;SDS011;62113;45.624;11.700;2022-08-03T11:06:12;1.73;;;1.40;;
63012;SDS011;62113;45.624;11.700;2022-08-03T11:08:43;3.38;;;1.60;;
63012;SDS011;62113;45.624;11.700;2022-08-03T11:16:28;2.42;;;1.55;;
63012;SDS011;62113;45.624;11.700;2022-08-03T11:19:12;1.30;;;1.27;;
63012;SDS011;62113;45.624;11.700;2022-08-03T11:43:06;2.90;;;1.38;;
63012;SDS011;62113;45.624;11.700;2022-08-03T11:48:27;1.40;;;1.38;;
63012;SDS011;62113;45.624;11.700;2022-08-03T11:50:56;4.20;;;1.50;;
63012;SDS011;62113;45.624;11.700;2022-08-03T11:53:22;2.70;;;1.40;;
63012;SDS011;62113;45.624;11.700;2022-08-03T11:55:47;4.40;;;1.35;;
63012;SDS011;62113;45.624;11.700;2022-08-03T12:00:42;1.33;;;1.33;;
63012;SDS011;62113;45.624;11.700;2022-08-03T12:03:09;2.92;;;1.55;;
63012;SDS011;62113;45.624;11.700;2022-08-03T12:05:38;4.63;;;1.35;;
63012;SDS011;62113;45.624;11.700;2022-08-03T12:08:04;4.82;;;1.33;;
63012;SDS011;62113;45.624;11.700;2022-08-03T12:10:30;1.67;;;1.30;;
63012;SDS011;62113;45.624;11.700;2022-08-03T12:12:57;5.80;;;1.40;;
63012;SDS011;62113;45.624;11.700;2022-08-03T12:15:28;1.50;;;1.20;;
63012;SDS011;62113;45.624;11.700;2022-08-03T12:17:55;1.10;;;1.10;;
63012;SDS011;62113;45.624;11.700;2022-08-03T12:20:22;2.47;;;1.30;;
63012;SDS011;62113;45.624;11.700;2022-08-03T12:22:49;1.20;;;1.10;;
63012;SDS011;62113;45.624;11.700;2022-08-03T12:25:22;2.03;;;1.30;;
63012;SDS011;62113;45.624;11.700;2022-08-03T12:27:50;2.38;;;1.20;;
63012;SDS011;62113;45.624;11.700;2022-08-03T12:30:16;2.00;;;1.48;;
63012;SDS011;62113;45.624;11.700;2022-08-03T12:32:43;3.25;;;1.70;;
63012;SDS011;62113;45.624;11.700;2022-08-03T12:35:09;1.55;;;1.27;;
63012;SDS011;62113;45.624;11.700;2022-08-03T12:37:46;2.33;;;1.33;;
63012;SDS011;62113;45.624;11.700;2022-08-03T12:40:12;1.40;;;1.30;;
63012;SDS011;62113;45.624;11.700;2022-08-03T12:42:40;1.55;;;1.45;;
63012;SDS011;62113;45.624;11.700;2022-08-03T12:45:18;3.58;;;1.50;;
63012;SDS011;62113;45.624;11.700;2022-08-03T12:47:52;1.30;;;1.30;;
63012;SDS011;62113;45.624;11.700;2022-08-03T12:50:24;1.85;;;1.40;;
63012;SDS011;62113;45.624;11.700;2022-08-03T12:52:52;2.13;;;1.40;;
63012;SDS011;62113;45.624;11.700;2022-08-03T12:55:19;1.67;;;1.40;;
63012;SDS011;62113;45.624;11.700;2022-08-03T12:57:46;1.45;;;1.10;;
63012;SDS011;62113;45.624;11.700;2022-08-03T13:00:13;1.67;;;1.23;;
63012;SDS011;62113;45.624;11.700;2022-08-03T13:02:40;2.65;;;1.25;;
63012;SDS011;62113;45.624;11.700;2022-08-03T13:05:12;1.23;;;1.13;;
63012;SDS011;62113;45.624;11.700;2022-08-03T13:07:44;1.20;;;1.10;;
63012;SDS011;62113;45.624;11.700;2022-08-03T13:10:11;1.20;;;1.17;;
63012;SDS011;62113;45.624;11.700;2022-08-03T13:12:50;1.45;;;1.33;;
63012;SDS011;62113;45.624;11.700;2022-08-03T13:15:17;1.40;;;1.30;;
63012;SDS011;62113;45.624;11.700;2022-08-03T13:17:43;3.03;;;1.55;;
63012;SDS011;62113;45.624;11.700;2022-08-03T13:20:08;1.50;;;1.40;;
63012;SDS011;62113;45.624;11.700;2022-08-03T13:22:34;4.20;;;1.38;;
63012;SDS011;62113;45.624;11.700;2022-08-03T13:25:00;1.50;;;1.40;;
63012;SDS011;62113;45.624;11.700;2022-08-03T13:27:27;3.00;;;1.13;;
63012;SDS011;62113;45.624;11.700;2022-08-03T13:29:54;2.10;;;1.27;;
63012;SDS011;62113;45.624;11.700;2022-08-03T13:32:21;1.58;;;1.20;;
63012;SDS011;62113;45.624;11.700;2022-08-03T13:34:47;1.50;;;1.40;;
63012;SDS011;62113;45.624;11.700;2022-08-03T13:37:13;2.20;;;1.20;;
63012;SDS011;62113;45.624;11.700;2022-08-03T13:42:05;1.42;;;1.33;;
63012;SDS011;62113;45.624;11.700;2022-08-03T13:46:56;1.10;;;1.10;;
63012;SDS011;62113;45.624;11.700;2022-08-03T13:49:24;3.08;;;1.20;;
63012;SDS011;62113;45.624;11.700;2022-08-03T13:51:50;1.42;;;1.30;;
63012;SDS011;62113;45.624;11.700;2022-08-03T13:54:16;1.10;;;1.10;;
63012;SDS011;62113;45.624;11.700;2022-08-03T13:56:43;3.60;;;1.50;;
63012;SDS011;62113;45.624;11.700;2022-08-03T13:59:14;1.05;;;1.05;;
63012;SDS011;62113;45.624;11.700;2022-08-03T14:01:39;5.05;;;1.30;;
63012;SDS011;62113;45.624;11.700;2022-08-03T14:04:05;1.85;;;1.10;;
63012;SDS011;62113;45.624;11.700;2022-08-03T14:06:30;2.78;;;1.55;;
63012;SDS011;62113;45.624;11.700;2022-08-03T14:08:56;1.45;;;1.35;;
63012;SDS011;62113;45.624;11.700;2022-08-03T14:11:22;1.20;;;1.17;;
63012;SDS011;62113;45.624;11.700;2022-08-03T14:13:47;3.38;;;1.40;;
63012;SDS011;62113;45.624;11.700;2022-08-03T14:18:39;1.05;;;1.02;;
63012;SDS011;62113;45.624;11.700;2022-08-03T14:21:06;1.25;;;1.20;;
63012;SDS011;62113;45.624;11.700;2022-08-03T14:23:32;1.73;;;1.50;;
63012;SDS011;62113;45.624;11.700;2022-08-03T14:25:58;2.05;;;1.15;;
63012;SDS011;62113;45.624;11.700;2022-08-03T14:28:24;1.10;;;1.10;;
63012;SDS011;62113;45.624;11.700;2022-08-03T14:33:15;11.50;;;1.45;;
63012;SDS011;62113;45.624;11.700;2022-08-03T14:38:07;1.48;;;1.38;;
63012;SDS011;62113;45.624;11.700;2022-08-03T14:42:58;1.60;;;1.25;;
63012;SDS011;62113;45.624;11.700;2022-08-03T14:47:49;2.25;;;1.20;;
63012;SDS011;62113;45.624;11.700;2022-08-03T14:50:15;2.85;;;1.10;;
63012;SDS011;62113;45.624;11.700;2022-08-03T14:52:41;1.38;;;1.27;;
63012;SDS011;62113;45.624;11.700;2022-08-03T14:55:07;1.30;;;1.20;;
63012;SDS011;62113;45.624;11.700;2022-08-03T14:57:33;2.40;;;1.40;;
63012;SDS011;62113;45.624;11.700;2022-08-03T15:02:24;4.25;;;1.50;;
63012;SDS011;62113;45.624;11.700;2022-08-03T15:07:15;2.10;;;1.35;;
63012;SDS011;62113;45.624;11.700;2022-08-03T15:09:41;4.22;;;1.30;;
63012;SDS011;62113;45.624;11.700;2022-08-03T15:12:07;1.27;;;1.23;;
63012;SDS011;62113;45.624;11.700;2022-08-03T15:14:32;1.40;;;1.30;;
63012;SDS011;62113;45.624;11.700;2022-08-03T15:16:58;9.23;;;1.50;;
63012;SDS011;62113;45.624;11.700;2022-08-03T15:19:24;2.53;;;1.55;;
63012;SDS011;62113;45.624;11.700;2022-08-03T15:24:15;1.27;;;1.17;;
63012;SDS011;62113;45.624;11.700;2022-08-03T15:26:40;3.88;;;1.40;;
63012;SDS011;62113;45.624;11.700;2022-08-03T15:31:32;1.25;;;1.17;;
63012;SDS011;62113;45.624;11.700;2022-08-03T15:36:23;1.45;;;1.17;;
63012;SDS011;62113;45.624;11.700;2022-08-03T15:41:15;1.67;;;1.17;;
63012;SDS011;62113;45.624;11.700;2022-08-03T15:43:42;1.15;;;1.15;;
63012;SDS011;62113;45.624;11.700;2022-08-03T15:46:10;1.30;;;1.20;;
63012;SDS011;62113;45.624;11.700;2022-08-03T15:48:36;1.20;;;1.20;;
63012;SDS011;62113;45.624;11.700;2022-08-03T15:51:02;3.35;;;1.15;;
63012;SDS011;62113;45.624;11.700;2022-08-03T15:53:29;3.42;;;1.10;;
63012;SDS011;62113;45.624;11.700;2022-08-03T15:55:54;2.38;;;1.38;;
63012;SDS011;62113;45.624;11.700;2022-08-03T16:00:45;1.35;;;1.25;;
63012;SDS011;62113;45.624;11.700;2022-08-03T16:03:11;5.28;;;1.40;;
63012;SDS011;62113;45.624;11.700;2022-08-03T16:08:02;4.40;;;1.40;;
63012;SDS011;62113;45.624;11.700;2022-08-03T16:10:28;1.38;;;1.27;;
63012;SDS011;62113;45.624;11.700;2022-08-03T16:12:55;1.30;;;1.30;;
63012;SDS011;62113;45.624;11.700;2022-08-03T16:15:22;1.40;;;1.30;;
63012;SDS011;62113;45.624;11.700;2022-08-03T16:17:48;1.35;;;1.27;;
63012;SDS011;62113;45.624;11.700;2022-08-03T16:20:14;2.00;;;1.52;;
63012;SDS011;62113;45.624;11.700;2022-08-03T16:25:07;6.93;;;1.52;;
63012;SDS011;62113;45.624;11.700;2022-08-03T16:27:33;3.88;;;1.90;;
63012;SDS011;62113;45.624;11.700;2022-08-03T16:32:24;1.85;;;1.63;;
63012;SDS011;62113;45.624;11.700;2022-08-03T16:37:15;6.15;;;1.80;;
63012;SDS011;62113;45.624;11.700;2022-08-03T16:42:06;3.88;;;1.80;;
63012;SDS011;62113;45.624;11.700;2022-08-03T16:46:58;3.70;;;1.60;;
63012;SDS011;62113;45.624;11.700;2022-08-03T16:49:24;3.88;;;1.60;;
63012;SDS011;62113;45.624;11.700;2022-08-03T16:54:15;2.17;;;1.60;;
63012;SDS011;62113;45.624;11.700;2022-08-03T16:56:42;7.95;;;1.80;;